Time;durP1;ratioP1;P1;durP2;ratioP2;P2;SDS_P1;SDS_P2;PMS_P1;PMS_P2;Temp;Humidity;BMP_temperature;BMP_pressure;BME280_temperature;BME280_humidity;BME280_pressure;Samples;Min_cycle;Max_cycle;Signal;HPM_P1;HPM_P2
2023/01/18 00:01:18;;;;;;;24.20;4.30;;;;;;;12.79;nan;101290.25;4927704;29;20463;-87
2023/01/18 00:03:46;;;;;;;23.40;3.93;;;;;;;12.70;nan;101289.53;4911272;29;20443;-87
2023/01/18 00:06:15;;;;;;;24.23;3.83;;;;;;;12.67;nan;101298.16;4928424;28;20451;-87
2023/01/18 00:08:43;;;;;;;24.53;3.70;;;;;;;12.63;nan;101298.75;4913166;29;20451;-87
2023/01/18 00:11:14;;;;;;;26.93;4.80;;;;;;;12.53;nan;101276.25;4912756;28;20459;-87
2023/01/18 00:13:42;;;;;;;17.87;3.90;;;;;;;12.50;nan;101283.00;4920146;29;20443;-86
2023/01/18 00:16:38;;;;;;;28.57;4.10;;;;;;;12.49;nan;101280.44;4941104;29;20455;-86
2023/01/18 00:19:11;;;;;;;24.00;3.50;;;;;;;12.53;nan;101287.22;4944202;29;20478;-87
2023/01/18 00:21:39;;;;;;;22.97;3.80;;;;;;;12.51;nan;101283.84;4926971;29;20957;-86
2023/01/18 00:24:10;;;;;;;25.83;4.00;;;;;;;12.52;nan;101280.03;4930813;29;20446;-87
2023/01/18 00:26:37;;;;;;;27.87;4.80;;;;;;;12.59;nan;101294.69;4907215;28;20456;-86
2023/01/18 00:29:05;;;;;;;21.87;4.30;;;;;;;12.67;nan;101316.53;4908615;29;20807;-85
2023/01/18 00:31:33;;;;;;;26.20;4.03;;;;;;;12.71;nan;101312.31;4846350;29;20484;-86
2023/01/18 00:34:02;;;;;;;24.10;3.47;;;;;;;12.82;nan;101330.19;4837270;29;20455;-87
2023/01/18 00:36:30;;;;;;;15.60;2.60;;;;;;;12.71;nan;101306.84;4849163;29;20456;-87
2023/01/18 00:38:59;;;;;;;29.13;4.67;;;;;;;12.62;nan;101308.00;4814208;29;20460;-87
2023/01/18 00:41:26;;;;;;;15.40;2.50;;;;;;;12.56;nan;101293.19;4814911;29;20463;-88
2023/01/18 00:43:55;;;;;;;20.27;3.10;;;;;;;12.55;nan;101276.91;4830450;29;20447;-88
2023/01/18 00:46:24;;;;;;;24.30;3.40;;;;;;;12.52;nan;101280.03;4859506;29;20467;-87
2023/01/18 00:48:52;;;;;;;13.40;2.53;;;;;;;12.47;nan;101274.31;4829188;28;20470;-87
2023/01/18 00:51:21;;;;;;;20.77;3.43;;;;;;;12.39;nan;101254.19;4908269;29;20460;-87
2023/01/18 00:53:49;;;;;;;20.13;3.20;;;;;;;12.34;nan;101264.00;4904039;29;20448;-87
2023/01/18 00:56:20;;;;;;;22.33;3.53;;;;;;;12.32;nan;101263.34;4905267;29;20440;-87
2023/01/18 00:58:48;;;;;;;19.60;3.17;;;;;;;12.29;nan;101275.59;4912044;29;20467;-86
2023/01/18 01:01:15;;;;;;;21.40;3.00;;;;;;;12.32;nan;101260.63;4938592;29;20451;-87
2023/01/18 01:06:43;;;;;;;18.13;3.67;;;;;;;12.32;nan;101247.75;4941440;29;20521;-87
2023/01/18 01:09:21;;;;;;;16.83;3.10;;;;;;;12.40;nan;101263.25;4910298;29;20474;-87
2023/01/18 01:26:07;;;;;;;15.90;3.20;;;;;;;12.52;nan;101271.81;4935417;29;20486;-86
2023/01/18 01:28:40;;;;;;;17.53;3.03;;;;;;;12.50;nan;101282.16;4907757;29;20458;-87
2023/01/18 01:31:09;;;;;;;10.20;1.70;;;;;;;12.42;nan;101281.22;4935096;29;20515;-87
2023/01/18 01:33:37;;;;;;;14.73;3.00;;;;;;;12.44;nan;101262.69;4904367;29;20491;-87
2023/01/18 01:36:12;;;;;;;16.30;2.70;;;;;;;12.41;nan;101265.81;4903929;29;20440;-87
2023/01/18 01:38:40;;;;;;;24.27;3.10;;;;;;;12.39;nan;101254.19;4920572;29;20452;-86
2023/01/18 01:41:10;;;;;;;14.87;2.40;;;;;;;12.40;nan;101250.41;4919133;29;20456;-87
2023/01/18 01:43:43;;;;;;;16.30;2.70;;;;;;;12.40;nan;101258.63;4935150;29;20466;-87
2023/01/18 01:46:34;;;;;;;15.67;2.40;;;;;;;12.54;nan;101261.50;4916043;29;21019;-87
2023/01/18 01:49:23;;;;;;;18.97;2.77;;;;;;;12.57;nan;101255.63;4901875;29;20457;-87
2023/01/18 01:51:56;;;;;;;26.87;3.57;;;;;;;12.47;nan;101241.41;4916652;29;21057;-86
2023/01/18 01:54:29;;;;;;;13.50;3.20;;;;;;;12.48;nan;101245.84;4917694;29;20456;-87
2023/01/18 01:57:09;;;;;;;17.87;3.23;;;;;;;12.47;nan;101260.59;4934789;29;20451;-86
2023/01/18 01:59:43;;;;;;;18.43;3.43;;;;;;;12.52;nan;101269.06;4920377;29;20460;-87
2023/01/18 02:02:12;;;;;;;19.40;2.70;;;;;;;12.46;nan;101243.31;4919162;29;20823;-87
2023/01/18 02:04:43;;;;;;;19.90;3.50;;;;;;;12.43;nan;101257.38;4914488;29;20461;-86
2023/01/18 02:07:10;;;;;;;16.77;2.83;;;;;;;12.45;nan;101258.91;4894797;29;20511;-87
2023/01/18 02:09:38;;;;;;;15.27;1.93;;;;;;;12.51;nan;101276.44;4907422;29;20504;-86
2023/01/18 02:12:06;;;;;;;10.50;1.93;;;;;;;12.57;nan;101278.41;4921811;29;20489;-87
2023/01/18 02:14:34;;;;;;;12.50;2.63;;;;;;;12.34;nan;101237.47;4920839;29;20483;-86
2023/01/18 02:17:18;;;;;;;14.77;2.57;;;;;;;12.37;nan;101258.16;4906524;29;20452;-86
2023/01/18 02:20:10;;;;;;;20.53;3.10;;;;;;;12.32;nan;101264.22;4933257;29;20456;-86
2023/01/18 02:22:46;;;;;;;17.20;2.50;;;;;;;12.23;nan;101270.84;4940607;29;20954;-87
2023/01/18 02:25:53;;;;;;;20.03;2.60;;;;;;;12.18;nan;101264.25;4940954;29;20517;-86
2023/01/18 02:28:24;;;;;;;22.10;3.63;;;;;;;12.17;nan;101266.13;4941281;29;20509;-86
2023/01/18 02:30:56;;;;;;;15.33;2.80;;;;;;;12.23;nan;101265.38;4940908;29;20451;-86
2023/01/18 02:33:39;;;;;;;15.87;2.60;;;;;;;12.21;nan;101259.22;4919811;29;20480;-86
2023/01/18 02:36:08;;;;;;;9.43;2.27;;;;;;;12.25;nan;101260.56;4922479;29;20977;-87
2023/01/18 02:38:44;;;;;;;18.40;2.60;;;;;;;12.23;nan;101243.44;4941052;29;20468;-87
2023/01/18 02:41:21;;;;;;;19.03;2.50;;;;;;;12.22;nan;101244.50;4908514;29;20455;-88
2023/01/18 02:46:37;;;;;;;13.60;2.63;;;;;;;12.26;nan;101281.44;4838949;29;20547;-86
2023/01/18 02:49:12;;;;;;;14.63;2.37;;;;;;;12.31;nan;101268.03;4837272;29;20466;-87
2023/01/18 02:51:39;;;;;;;17.80;2.63;;;;;;;12.36;nan;101267.41;4853311;29;20446;-87
2023/01/18 02:54:08;;;;;;;11.87;1.97;;;;;;;12.39;nan;101264.28;4851965;29;20454;-87
2023/01/18 02:56:45;;;;;;;12.23;2.10;;;;;;;12.39;nan;101272.53;4852530;29;20454;-88
2023/01/18 02:59:20;;;;;;;15.40;2.70;;;;;;;12.50;nan;101282.16;4866947;29;20462;-87
2023/01/18 03:02:18;;;;;;;12.20;2.43;;;;;;;12.47;nan;101274.31;4874455;29;20459;-87
2023/01/18 03:04:53;;;;;;;10.37;1.70;;;;;;;12.40;nan;101276.97;4896226;29;20451;-87
2023/01/18 03:07:21;;;;;;;15.80;2.70;;;;;;;12.45;nan;101278.09;4911439;29;20466;-87
2023/01/18 03:09:49;;;;;;;10.03;2.17;;;;;;;12.36;nan;101281.97;4941273;29;20505;-86
2023/01/18 03:12:59;;;;;;;12.10;2.37;;;;;;;12.32;nan;101275.16;4924506;29;20486;-86
2023/01/18 03:15:46;;;;;;;11.90;2.00;;;;;;;12.31;nan;101295.44;4885774;29;20482;-86
2023/01/18 03:18:27;;;;;;;9.60;1.53;;;;;;;12.27;nan;101274.06;4897772;29;20458;-86
2023/01/18 03:20:56;;;;;;;18.97;3.37;;;;;;;12.28;nan;101293.06;4869068;29;20450;-87
2023/01/18 03:23:37;;;;;;;17.40;3.33;;;;;;;12.33;nan;101281.50;4883443;29;20509;-87
2023/01/18 03:26:07;;;;;;;14.37;2.40;;;;;;;12.27;nan;101290.50;4881067;29;20502;-87
2023/01/18 03:34:44;;;;;;;20.27;2.80;;;;;;;12.12;nan;101268.63;4885599;29;20454;-87
2023/01/18 03:37:37;;;;;;;16.43;3.10;;;;;;;12.16;nan;101274.53;4886363;29;20960;-87
2023/01/18 03:40:26;;;;;;;21.50;3.20;;;;;;;12.10;nan;101281.66;4867783;29;20468;-87
2023/01/18 03:43:08;;;;;;;23.53;3.40;;;;;;;12.12;nan;101290.53;4883104;29;20468;-87
2023/01/18 03:45:42;;;;;;;9.13;2.20;;;;;;;12.14;nan;101279.38;4867652;29;20983;-87
2023/01/18 03:48:10;;;;;;;24.00;2.63;;;;;;;12.15;nan;101284.66;4867547;29;20480;-88
2023/01/18 03:50:48;;;;;;;19.47;3.13;;;;;;;12.19;nan;101277.75;4903884;29;20538;-87
2023/01/18 03:53:47;;;;;;;20.70;3.30;;;;;;;12.19;nan;101271.44;4937717;29;20993;-87
2023/01/18 03:56:17;;;;;;;23.57;3.50;;;;;;;12.19;nan;101274.16;4936640;29;20456;-87
2023/01/18 03:58:44;;;;;;;13.47;2.70;;;;;;;12.18;nan;101269.72;4936496;29;20834;-86
2023/01/18 04:01:12;;;;;;;20.03;2.70;;;;;;;12.24;nan;101283.53;4936869;29;20464;-86
2023/01/18 04:03:40;;;;;;;21.23;2.30;;;;;;;12.17;nan;101270.75;4921382;29;20460;-87
2023/01/18 04:06:09;;;;;;;9.00;2.07;;;;;;;12.25;nan;101282.47;4936915;29;20935;-86
2023/01/18 04:08:36;;;;;;;13.10;2.53;;;;;;;12.21;nan;101285.78;4917432;29;20453;-87
2023/01/18 04:11:04;;;;;;;9.30;1.77;;;;;;;12.14;nan;101293.91;4922010;28;20440;-88
2023/01/18 04:13:32;;;;;;;11.57;2.23;;;;;;;12.10;nan;101281.66;4920741;29;20495;-87
2023/01/18 04:16:01;;;;;;;11.17;1.87;;;;;;;12.06;nan;101289.41;4936460;29;20846;-88
2023/01/18 04:18:29;;;;;;;13.33;3.00;;;;;;;12.03;nan;101291.66;4908621;29;20451;-87
2023/01/18 04:20:56;;;;;;;16.63;2.63;;;;;;;12.02;nan;101289.97;4923372;29;20458;-87
2023/01/18 04:23:24;;;;;;;13.10;2.60;;;;;;;12.00;nan;101286.56;4946295;29;20514;-87
2023/01/18 04:25:52;;;;;;;11.13;2.40;;;;;;;12.06;nan;101299.50;4833655;29;20518;-87
2023/01/18 04:28:24;;;;;;;13.10;2.73;;;;;;;12.03;nan;101297.16;4828253;29;20860;-87
2023/01/18 04:30:53;;;;;;;12.17;2.27;;;;;;;12.03;nan;101298.00;4840292;29;20458;-87
2023/01/18 04:33:22;;;;;;;11.20;3.13;;;;;;;12.08;nan;101294.69;4843141;29;20484;-87
2023/01/18 04:35:50;;;;;;;13.10;3.33;;;;;;;12.10;nan;101298.09;4843591;29;20526;-87
2023/01/18 04:38:18;;;;;;;20.87;2.47;;;;;;;12.07;nan;101299.31;4829479;29;20452;-88
2023/01/18 04:40:46;;;;;;;10.23;2.13;;;;;;;12.06;nan;101313.22;4840077;29;21007;-88
2023/01/18 04:43:13;;;;;;;17.70;2.83;;;;;;;12.10;nan;101314.53;4845350;29;20459;-87
2023/01/18 04:45:41;;;;;;;26.50;3.70;;;;;;;12.06;nan;101305.00;4923048;29;20526;-87
2023/01/18 04:48:10;;;;;;;20.30;3.53;;;;;;;12.08;nan;101322.09;4928994;29;20459;-87
2023/01/18 04:50:40;;;;;;;22.17;2.90;;;;;;;12.03;nan;101316.31;4923300;29;20502;-88
2023/01/18 04:53:09;;;;;;;20.80;3.03;;;;;;;12.01;nan;101316.50;4935555;29;20479;-87
2023/01/18 04:55:36;;;;;;;18.87;2.90;;;;;;;11.97;nan;101312.44;4922386;29;20513;-87
2023/01/18 04:58:04;;;;;;;15.53;3.20;;;;;;;11.96;nan;101304.41;4922252;29;20439;-87
2023/01/18 05:00:32;;;;;;;12.27;2.70;;;;;;;11.95;nan;101313.66;4922416;29;20502;-87
2023/01/18 05:02:59;;;;;;;16.60;3.43;;;;;;;11.95;nan;101327.38;4914441;29;20965;-87
2023/01/18 05:05:28;;;;;;;15.97;2.87;;;;;;;11.89;nan;101329.00;4922524;28;20443;-87
2023/01/18 05:07:56;;;;;;;10.23;2.43;;;;;;;11.86;nan;101321.16;4937889;29;20532;-87
2023/01/18 05:10:23;;;;;;;27.97;3.50;;;;;;;11.93;nan;101313.03;4937779;28;20439;-87
2023/01/18 05:12:51;;;;;;;18.40;2.60;;;;;;;11.91;nan;101321.44;4921660;28;20482;-87
2023/01/18 05:15:20;;;;;;;23.80;3.10;;;;;;;11.97;nan;101312.44;4934611;29;20444;-88
2023/01/18 05:17:48;;;;;;;22.10;3.50;;;;;;;11.92;nan;101325.03;4953071;28;20842;-87
2023/01/18 05:20:16;;;;;;;18.70;3.00;;;;;;;11.97;nan;101330.78;4921799;29;20447;-87
2023/01/18 05:22:44;;;;;;;14.30;3.40;;;;;;;11.97;nan;101342.56;4937938;29;20505;-85
2023/01/18 05:25:12;;;;;;;9.53;2.00;;;;;;;12.00;nan;101360.53;4937802;29;20506;-85
2023/01/18 05:27:41;;;;;;;21.30;2.40;;;;;;;12.01;nan;101390.47;4937644;29;20455;-88
2023/01/18 05:30:10;;;;;;;23.10;3.57;;;;;;;12.02;nan;101416.84;4937888;29;20443;-88
2023/01/18 05:32:37;;;;;;;21.27;3.60;;;;;;;11.93;nan;101392.47;4922371;28;20444;-87
2023/01/18 05:35:05;;;;;;;17.57;3.27;;;;;;;11.83;nan;101395.47;4906500;29;20455;-88
2023/01/18 05:37:33;;;;;;;21.63;3.90;;;;;;;11.67;nan;101376.41;4922383;29;20443;-87
2023/01/18 05:40:00;;;;;;;19.83;3.47;;;;;;;11.62;nan;101385.19;4905574;29;20482;-87
2023/01/18 05:42:29;;;;;;;18.03;4.20;;;;;;;11.52;nan;101384.59;4921644;28;20459;-88
2023/01/18 05:44:56;;;;;;;23.33;3.50;;;;;;;11.49;nan;101365.81;4954746;28;20505;-87
2023/01/18 05:47:24;;;;;;;19.00;3.77;;;;;;;11.46;nan;101379.84;4938489;29;20603;-86
2023/01/18 05:49:52;;;;;;;24.10;4.47;;;;;;;11.39;nan;101367.94;4922238;29;20459;-87
2023/01/18 05:52:19;;;;;;;28.33;4.50;;;;;;;11.46;nan;101384.47;4903416;29;21026;-87
2023/01/18 05:54:49;;;;;;;16.93;4.60;;;;;;;11.45;nan;101375.41;4906455;29;20495;-87
2023/01/18 05:57:17;;;;;;;18.17;3.70;;;;;;;11.41;nan;101363.97;4937831;29;20874;-87
2023/01/18 05:59:44;;;;;;;18.90;3.23;;;;;;;11.37;nan;101367.25;4938326;29;20455;-87
2023/01/18 06:02:12;;;;;;;22.80;3.60;;;;;;;11.37;nan;101367.25;4922586;29;21013;-87
2023/01/18 06:04:40;;;;;;;23.53;3.57;;;;;;;11.41;nan;101368.59;4938434;28;20953;-87
2023/01/18 06:07:08;;;;;;;39.03;4.97;;;;;;;11.49;nan;101376.75;4922368;29;20517;-86
2023/01/18 06:09:36;;;;;;;15.60;2.30;;;;;;;11.42;nan;101362.94;4903538;29;20506;-86
2023/01/18 06:12:04;;;;;;;14.93;2.40;;;;;;;11.38;nan;101379.91;4900333;29;20551;-87
2023/01/18 06:14:31;;;;;;;19.37;3.20;;;;;;;11.38;nan;101386.25;4884942;29;20492;-86
2023/01/18 06:17:00;;;;;;;15.67;3.23;;;;;;;11.42;nan;101419.56;4900428;29;20448;-87
2023/01/18 06:19:30;;;;;;;25.33;3.10;;;;;;;11.47;nan;101428.09;4903431;29;20454;-87
2023/01/18 06:21:58;;;;;;;12.13;2.70;;;;;;;11.54;nan;101411.81;4934489;29;20455;-88
2023/01/18 06:24:26;;;;;;;16.73;2.63;;;;;;;11.43;nan;101430.34;4903730;29;20526;-87
2023/01/18 06:26:54;;;;;;;14.83;2.60;;;;;;;11.36;nan;101428.50;4918983;29;20479;-86
2023/01/18 06:29:22;;;;;;;10.37;2.37;;;;;;;11.28;nan;101409.41;4918834;29;20467;-87
2023/01/18 06:31:50;;;;;;;9.00;2.20;;;;;;;11.27;nan;101422.25;4919179;29;20499;-87
2023/01/18 06:34:18;;;;;;;13.90;2.60;;;;;;;11.23;nan;101431.00;4918303;29;21018;-87
2023/01/18 06:36:45;;;;;;;13.13;2.83;;;;;;;11.13;nan;101431.25;4937648;29;20508;-86
2023/01/18 06:39:13;;;;;;;11.77;2.63;;;;;;;11.10;nan;101431.59;4931640;29;20440;-86
2023/01/18 06:41:47;;;;;;;18.37;2.77;;;;;;;11.07;nan;101441.03;4912587;29;20456;-87
2023/01/18 06:44:17;;;;;;;12.47;2.13;;;;;;;11.04;nan;101460.53;4930703;29;21021;-86
2023/01/18 06:46:46;;;;;;;11.60;2.33;;;;;;;11.00;nan;101467.38;4918943;29;20452;-86
2023/01/18 06:49:24;;;;;;;29.43;4.20;;;;;;;11.00;nan;101453.69;4934534;29;21010;-87
2023/01/18 06:51:51;;;;;;;28.00;4.63;;;;;;;10.91;nan;101449.31;4934429;29;20837;-87
2023/01/18 06:54:19;;;;;;;22.50;3.30;;;;;;;11.04;nan;101460.53;4906406;29;21029;-87
2023/01/18 06:56:47;;;;;;;19.43;3.60;;;;;;;11.01;nan;101457.28;4937777;29;20460;-86
2023/01/18 06:59:15;;;;;;;17.97;3.03;;;;;;;10.97;nan;101451.31;4937902;29;20481;-87
2023/01/18 07:01:42;;;;;;;25.07;3.53;;;;;;;10.99;nan;101462.94;4938003;29;20448;-87
2023/01/18 07:04:10;;;;;;;15.13;3.00;;;;;;;10.93;nan;101452.72;4906297;29;20958;-87
2023/01/18 07:06:38;;;;;;;31.37;5.07;;;;;;;10.96;nan;101454.25;4921989;29;20460;-86
2023/01/18 07:09:08;;;;;;;21.53;3.50;;;;;;;10.82;nan;101444.06;4921748;29;20831;-86
2023/01/18 07:11:36;;;;;;;25.77;4.57;;;;;;;10.88;nan;101457.88;4937276;29;21077;-86
2023/01/18 07:14:04;;;;;;;16.47;3.90;;;;;;;10.88;nan;101463.34;4918227;29;21062;-86
2023/01/18 07:16:32;;;;;;;20.97;3.73;;;;;;;10.89;nan;101472.41;4920107;29;20512;-87
2023/01/18 07:19:00;;;;;;;21.17;3.67;;;;;;;10.88;nan;101476.16;4915033;29;20457;-86
2023/01/18 07:21:28;;;;;;;23.93;3.53;;;;;;;10.85;nan;101481.97;4903460;29;20468;-87
2023/01/18 07:23:58;;;;;;;20.50;3.63;;;;;;;10.85;nan;101488.31;4905515;29;20452;-87
2023/01/18 07:26:27;;;;;;;14.23;3.50;;;;;;;10.84;nan;101494.81;4902917;29;20460;-86
2023/01/18 07:28:56;;;;;;;18.23;3.33;;;;;;;10.84;nan;101496.69;4921736;29;20464;-86
2023/01/18 07:31:24;;;;;;;16.37;3.10;;;;;;;10.83;nan;101501.31;4937260;29;20460;-87
2023/01/18 07:33:52;;;;;;;14.30;3.17;;;;;;;10.82;nan;101509.69;4921421;29;20483;-86
2023/01/18 07:36:21;;;;;;;13.43;2.50;;;;;;;10.83;nan;101514.97;4921808;29;20470;-87
2023/01/18 07:38:48;;;;;;;15.53;3.37;;;;;;;10.89;nan;101511.53;4903453;29;20465;-87
2023/01/18 07:41:16;;;;;;;20.93;3.70;;;;;;;10.98;nan;101526.03;4907152;29;20485;-88
2023/01/18 07:43:46;;;;;;;21.93;3.50;;;;;;;11.02;nan;101528.22;4906008;29;20460;-87
2023/01/18 07:46:15;;;;;;;19.90;3.07;;;;;;;11.06;nan;101537.78;4938809;29;20448;-87
2023/01/18 07:48:43;;;;;;;15.20;3.97;;;;;;;11.16;nan;101545.78;4921785;29;20985;-85
2023/01/18 07:51:11;;;;;;;22.97;3.43;;;;;;;11.16;nan;101534.00;4921420;29;20983;-87
2023/01/18 07:53:40;;;;;;;15.37;2.13;;;;;;;11.25;nan;101552.06;4915105;29;20975;-87
2023/01/18 07:56:12;;;;;;;13.87;1.90;;;;;;;11.26;nan;101540.09;4913220;29;20459;-85
2023/01/18 07:58:40;;;;;;;15.00;2.30;;;;;;;11.19;nan;101528.16;4937100;29;20467;-86
2023/01/18 08:01:12;;;;;;;11.57;2.07;;;;;;;11.14;nan;101536.06;4921465;29;20454;-87
2023/01/18 08:03:42;;;;;;;14.70;2.77;;;;;;;11.12;nan;101538.13;4916514;29;20598;-87
2023/01/18 08:06:17;;;;;;;12.60;2.10;;;;;;;11.08;nan;101541.22;4903620;29;21003;-86
2023/01/18 08:08:45;;;;;;;16.47;2.60;;;;;;;11.00;nan;101534.91;4916799;29;20815;-86
2023/01/18 08:11:13;;;;;;;15.40;2.20;;;;;;;10.98;nan;101543.28;4892437;29;20453;-86
2023/01/18 08:13:41;;;;;;;11.93;2.27;;;;;;;10.98;nan;101548.75;4900445;29;20480;-86
2023/01/18 08:16:11;;;;;;;7.37;2.00;;;;;;;10.98;nan;101567.03;4937419;29;20462;-87
2023/01/18 08:18:40;;;;;;;16.40;2.47;;;;;;;10.93;nan;101562.13;4921029;28;20510;-87
2023/01/18 08:21:10;;;;;;;14.87;2.90;;;;;;;10.96;nan;101575.47;4908409;29;20447;-86
2023/01/18 08:23:38;;;;;;;14.50;2.20;;;;;;;10.97;nan;101579.00;4905521;29;20436;-86
2023/01/18 08:26:06;;;;;;;21.20;3.47;;;;;;;10.99;nan;101586.03;4889835;29;20456;-87
2023/01/18 08:28:34;;;;;;;21.57;3.00;;;;;;;11.04;nan;101577.28;4889680;29;20459;-87
2023/01/18 08:31:05;;;;;;;15.27;2.90;;;;;;;11.08;nan;101593.19;4923950;29;20513;-88
2023/01/18 08:33:56;;;;;;;16.93;3.33;;;;;;;11.16;nan;101616.09;4908671;28;20479;-86
2023/01/18 08:36:24;;;;;;;16.90;2.80;;;;;;;11.19;nan;101618.44;4937624;29;20833;-86
2023/01/18 08:38:56;;;;;;;13.13;2.20;;;;;;;11.24;nan;101624.25;4939497;28;20451;-86
2023/01/18 08:41:27;;;;;;;25.30;2.90;;;;;;;11.15;nan;101598.81;4920684;29;20452;-86
2023/01/18 08:43:56;;;;;;;16.73;3.10;;;;;;;11.28;nan;101620.97;4907696;28;20460;-87
2023/01/18 08:46:25;;;;;;;23.77;4.90;;;;;;;11.30;nan;101620.81;4939732;29;20447;-87
2023/01/18 08:48:58;;;;;;;14.67;2.77;;;;;;;11.34;nan;101619.44;4924164;29;20458;-88
2023/01/18 08:51:26;;;;;;;17.87;3.40;;;;;;;11.40;nan;101629.66;4908872;29;21130;-88
2023/01/18 08:53:55;;;;;;;17.30;3.10;;;;;;;11.46;nan;101628.94;4907799;29;20851;-89
2023/01/18 08:56:24;;;;;;;18.37;3.10;;;;;;;11.60;nan;101647.34;4908790;29;20446;-89
2023/01/18 08:58:52;;;;;;;16.40;3.57;;;;;;;11.65;nan;101650.41;4923328;29;20937;-89
2023/01/18 09:01:21;;;;;;;22.37;3.33;;;;;;;11.72;nan;101651.41;4907962;29;20520;-87
2023/01/18 09:03:54;;;;;;;19.43;3.20;;;;;;;11.82;nan;101666.78;4908415;29;20486;-87
2023/01/18 09:06:30;;;;;;;25.43;2.43;;;;;;;11.86;nan;101662.66;4925188;29;20454;-88
2023/01/18 09:08:59;;;;;;;15.10;2.70;;;;;;;11.94;nan;101670.81;4920468;29;20460;-86
2023/01/18 09:11:27;;;;;;;12.67;1.90;;;;;;;12.00;nan;101687.41;4901048;29;20476;-86
2023/01/18 09:13:55;;;;;;;12.23;1.83;;;;;;;11.96;nan;101664.13;4902354;29;20484;-88
2023/01/18 09:16:28;;;;;;;11.97;2.37;;;;;;;12.08;nan;101683.78;4902350;29;20508;-87
2023/01/18 09:19:00;;;;;;;9.67;1.57;;;;;;;12.15;nan;101682.00;4920761;28;20459;-88
2023/01/18 09:21:28;;;;;;;8.43;1.97;;;;;;;12.07;nan;101677.44;4955157;29;20455;-89
2023/01/18 09:23:58;;;;;;;10.37;2.13;;;;;;;12.12;nan;101696.09;4936132;29;20464;-87
2023/01/18 09:26:27;;;;;;;13.17;2.30;;;;;;;12.10;nan;101720.06;4936217;29;20452;-88
2023/01/18 09:28:55;;;;;;;9.33;1.90;;;;;;;12.12;nan;101700.72;4900578;29;20468;-87
2023/01/18 09:31:25;;;;;;;15.97;3.40;;;;;;;12.16;nan;101716.59;4893645;29;20460;-87
2023/01/18 09:33:54;;;;;;;19.47;2.77;;;;;;;12.19;nan;101734.56;4935882;29;20494;-86
2023/01/18 09:36:32;;;;;;;21.77;2.87;;;;;;;12.14;nan;101735.09;4903198;29;20466;-87
2023/01/18 09:39:00;;;;;;;14.33;3.00;;;;;;;11.98;nan;101714.13;4919138;29;20494;-87
2023/01/18 09:41:38;;;;;;;14.20;2.13;;;;;;;11.91;nan;101735.06;4936536;29;20448;-87
2023/01/18 09:44:40;;;;;;;11.37;2.30;;;;;;;11.83;nan;101734.25;4910902;29;21006;-88
2023/01/18 09:47:20;;;;;;;19.60;2.93;;;;;;;11.76;nan;101734.94;4846291;29;20451;-88
2023/01/18 09:49:53;;;;;;;7.87;2.10;;;;;;;11.77;nan;101752.22;4833403;29;20964;-87
2023/01/18 09:53:10;;;;;;;17.10;2.97;;;;;;;11.81;nan;101741.78;4877789;29;20502;-86
2023/01/18 09:55:55;;;;;;;9.57;2.50;;;;;;;12.01;nan;101741.16;4804329;29;20908;-87
2023/01/18 09:58:37;;;;;;;7.90;2.40;;;;;;;12.25;nan;101764.84;4789811;29;20454;-86
2023/01/18 10:01:12;;;;;;;15.50;2.87;;;;;;;12.33;nan;101751.09;4789851;29;20453;-88
2023/01/18 10:03:55;;;;;;;8.77;1.97;;;;;;;12.36;nan;101758.94;4774999;29;20454;-87
2023/01/18 10:06:29;;;;;;;20.40;3.73;;;;;;;12.28;nan;101763.66;4786291;29;20443;-86
2023/01/18 10:09:14;;;;;;;18.37;2.40;;;;;;;12.24;nan;101765.88;4790068;29;20518;-87
2023/01/18 10:12:08;;;;;;;13.27;2.33;;;;;;;12.24;nan;101765.88;4795196;29;20485;-86
2023/01/18 10:14:46;;;;;;;10.40;2.57;;;;;;;12.30;nan;101770.66;4822257;29;20497;-88
2023/01/18 10:17:46;;;;;;;16.10;3.03;;;;;;;12.47;nan;101765.94;4808457;29;20501;-91
2023/01/18 10:20:38;;;;;;;15.53;3.07;;;;;;;12.66;nan;101781.06;4823530;29;20462;-91
2023/01/18 10:23:14;;;;;;;14.40;2.97;;;;;;;12.90;nan;101783.59;4836518;29;20477;-86
2023/01/18 10:25:47;;;;;;;16.00;3.87;;;;;;;13.14;nan;101782.53;4909294;28;20961;-87
2023/01/18 10:28:25;;;;;;;14.40;2.93;;;;;;;13.41;nan;101794.88;4921862;29;20448;-87
2023/01/18 10:31:21;;;;;;;15.13;3.13;;;;;;;13.49;nan;101800.25;4960605;28;20446;-87
2023/01/18 10:33:55;;;;;;;24.40;3.40;;;;;;;13.48;nan;101804.03;4925917;28;20825;-87
2023/01/18 10:36:57;;;;;;;16.77;2.17;;;;;;;13.42;nan;101815.78;4909138;29;20502;-88
2023/01/18 10:39:37;;;;;;;17.40;3.37;;;;;;;13.27;nan;101845.09;4923419;29;20459;-88
2023/01/18 10:42:44;;;;;;;20.60;2.53;;;;;;;12.87;nan;101838.00;4903193;29;20450;-88
2023/01/18 10:48:53;;;;;;;13.70;2.20;;;;;;;12.45;nan;101811.88;4912821;29;20480;-88
2023/01/18 10:51:34;;;;;;;18.00;2.30;;;;;;;12.53;nan;101827.41;4890488;29;20980;-89
2023/01/18 10:54:17;;;;;;;15.03;2.23;;;;;;;12.53;nan;101820.03;4900059;29;20444;-87
2023/01/18 10:56:44;;;;;;;14.10;2.20;;;;;;;12.58;nan;101816.75;4902565;29;20445;-86
2023/01/18 10:59:28;;;;;;;16.73;3.00;;;;;;;12.67;nan;101818.41;4917985;29;20520;-87
2023/01/18 11:01:56;;;;;;;9.40;2.07;;;;;;;12.89;nan;101820.34;4887284;29;20882;-88
2023/01/18 11:04:28;;;;;;;15.73;1.93;;;;;;;13.22;nan;101814.59;4871657;29;20461;-86
2023/01/18 11:06:59;;;;;;;19.33;3.40;;;;;;;13.56;nan;101856.16;4872523;29;20449;-88
2023/01/18 11:09:48;;;;;;;18.77;5.50;;;;;;;13.51;nan;101846.75;4886278;29;20457;-90
2023/01/18 11:12:37;;;;;;;22.63;6.53;;;;;;;13.38;nan;101844.66;4896330;29;20500;-89
2023/01/18 11:15:14;;;;;;;18.20;3.97;;;;;;;13.19;nan;101842.41;4900698;29;20492;-88
2023/01/18 11:18:02;;;;;;;12.00;3.40;;;;;;;13.04;nan;101834.97;4899639;29;20460;-88
2023/01/18 11:20:38;;;;;;;17.73;4.20;;;;;;;12.92;nan;101828.16;4905763;29;20464;-88
2023/01/18 11:23:09;;;;;;;16.07;3.97;;;;;;;12.85;nan;101813.50;4936604;29;20459;-87
2023/01/18 11:25:40;;;;;;;20.03;4.67;;;;;;;12.91;nan;101809.13;4921056;29;20456;-88
2023/01/18 11:28:22;;;;;;;13.07;3.93;;;;;;;12.95;nan;101803.13;4921739;29;20448;-87
2023/01/18 11:31:07;;;;;;;12.57;3.77;;;;;;;13.04;nan;101796.53;4937341;29;20544;-87
2023/01/18 11:33:55;;;;;;;10.93;3.93;;;;;;;13.30;nan;101801.63;4940141;29;20455;-87
2023/01/18 11:36:37;;;;;;;14.50;2.33;;;;;;;13.52;nan;101788.91;4903456;29;20499;-87
2023/01/18 11:39:30;;;;;;;13.23;2.90;;;;;;;13.98;nan;101795.09;4902137;29;20456;-87
2023/01/18 11:42:10;;;;;;;16.83;2.23;;;;;;;14.28;nan;101795.88;4903145;29;20445;-88
2023/01/18 11:45:14;;;;;;;12.83;2.77;;;;;;;14.38;nan;101817.59;4932982;29;20460;-87
2023/01/18 11:48:03;;;;;;;14.97;2.40;;;;;;;14.29;nan;101830.59;4917582;29;20456;-87
2023/01/18 11:50:42;;;;;;;12.00;2.30;;;;;;;14.01;nan;101848.81;4920873;29;20471;-87
2023/01/18 11:53:42;;;;;;;15.03;1.70;;;;;;;13.64;nan;101836.88;4920363;29;20897;-87
2023/01/18 11:56:49;;;;;;;6.93;2.00;;;;;;;13.45;nan;101818.16;4923852;29;20496;-87
2023/01/18 11:59:30;;;;;;;9.37;1.50;;;;;;;13.36;nan;101811.03;4888656;29;20457;-87
2023/01/18 12:02:35;;;;;;;10.73;1.43;;;;;;;13.41;nan;101814.09;4901699;29;20441;-87
2023/01/18 12:05:19;;;;;;;10.67;2.57;;;;;;;13.51;nan;101819.28;4901250;29;20490;-87
2023/01/18 12:07:59;;;;;;;9.10;1.93;;;;;;;13.64;nan;101825.88;4916561;29;20978;-87
2023/01/18 12:10:32;;;;;;;9.67;1.13;;;;;;;13.75;nan;101838.28;4901284;29;20445;-87
2023/01/18 12:13:06;;;;;;;11.40;2.27;;;;;;;13.81;nan;101843.03;4897644;29;20485;-88
2023/01/18 12:15:56;;;;;;;11.97;1.93;;;;;;;13.64;nan;101830.50;4899110;29;20485;-87
2023/01/18 12:19:01;;;;;;;10.43;1.90;;;;;;;13.55;nan;101818.75;4897839;29;20457;-88
2023/01/18 12:21:43;;;;;;;12.80;2.20;;;;;;;13.66;nan;101812.78;4901935;29;20862;-88
2023/01/18 12:24:15;;;;;;;14.20;3.20;;;;;;;13.92;nan;101814.22;4898055;29;20457;-88
2023/01/18 12:26:57;;;;;;;19.53;2.63;;;;;;;14.04;nan;101801.72;4911758;29;20461;-88
2023/01/18 12:29:42;;;;;;;27.90;3.30;;;;;;;14.26;nan;101800.72;4912795;29;20458;-88
2023/01/18 12:32:34;;;;;;;13.10;2.30;;;;;;;14.40;nan;101788.91;4901117;29;20464;-88
2023/01/18 12:35:15;;;;;;;16.90;2.17;;;;;;;14.47;nan;101788.94;4915097;29;20489;-87